| Date | Time | Temp. (oF) | Dew Point (oF) | Rel. Hum. (%) | Press. (in.) | Wind Dir. | Wind Speed (mph) | Hourly Rainfall (in.) |
|
|---|---|---|---|---|---|---|---|---|---|
| 1 | 12/25 | 00:00 | 31 | 19 | 63 | 30.22 | W | 4 | 0.00 |
| 2 | 12/24 | 23:00 | 31 | 19 | 61 | 30.22 | WSW | 3 | 0.00 |
| 3 | 12/24 | 22:00 | 32 | 19 | 59 | 30.20 | NW | 2 | 0.00 |
| 4 | 12/24 | 21:00 | 33 | 20 | 60 | 30.18 | W | 5 | 0.00 |
| 5 | 12/24 | 20:00 | 35 | 22 | 60 | 30.16 | WNW | 5 | 0.00 |
| 6 | 12/24 | 19:00 | 36 | 21 | 56 | 30.15 | NW | 9 | 0.00 |
| 7 | 12/24 | 18:00 | 37 | 22 | 55 | 30.14 | W | 6 | 0.00 |
| 8 | 12/24 | 17:00 | 37 | 22 | 55 | 30.11 | S | 4 | 0.00 |
| 9 | 12/24 | 16:00 | 38 | 23 | 56 | 30.09 | SSW | 4 | 0.00 |
| 10 | 12/24 | 15:00 | 38 | 23 | 56 | 30.09 | SW | 4 | 0.00 |
| 11 | 12/24 | 14:00 | 38 | 23 | 56 | 30.10 | SW | 5 | 0.00 |
| 12 | 12/24 | 13:00 | 37 | 25 | 63 | 30.10 | WNW | 10 | 0.00 |
| 13 | 12/24 | 12:00 | 38 | 28 | 67 | 30.10 | SSW | 7 | 0.00 |
| 14 | 12/24 | 11:00 | 38 | 28 | 67 | 30.13 | WSW | 9 | 0.00 |
| 15 | 12/24 | 10:00 | 37 | 30 | 76 | 30.14 | W | 13 | 0.00 |
| 16 | 12/24 | 09:00 | 36 | 34 | 94 | 30.13 | WNW | 7 | 0.00 |
| 17 | 12/24 | 08:00 | 35 | 34 | 98 | 30.09 | W | 3 | 0.00 |
| 18 | 12/24 | 07:00 | 35 | 34 | 98 | 30.06 | WSW | 2 | 0.00 |
| 19 | 12/24 | 06:00 | 35 | 34 | 98 | 30.05 | W | 2 | 0.00 |
| 20 | 12/24 | 05:00 | 35 | 33 | 95 | 30.03 | S | 1 | 0.00 |
| 21 | 12/24 | 04:00 | 35 | 33 | 94 | 30.03 | W | 1 | 0.00 |
| 22 | 12/24 | 03:00 | 35 | 32 | 92 | 30.03 | SSW | 1 | 0.02 |
| 23 | 12/24 | 02:00 | 36 | 33 | 91 | 30.03 | S | 1 | 0.02 |
| 24 | 12/24 | 01:00 | 36 | 32 | 87 | 30.03 | SSW | 1 | 0.02 |